AXY017 EDDB-LSZH
Flight info
| Callsign | AXY017 |
|---|---|
| Flight time | 1h 24m |
| Altitude | 38000 |
| Route | KISUC1K KISUC Z20 MAG Z92 ABGUS DCT LUXUX/N0485F310 DCT SWALM/N0476F300 DCT OMOGI/N0486F310 T721 RILAX |
| Aircraft | A343/H-SDE2E3FGHIJ4J5M1RWXY/LB1D1 |
Departure
| Time | 2026-05-05 18:39 |
|---|---|
| Airport | Berlin Brandenburg Airport (EDDB) |
Arrival
| Time | 2026-05-05 20:04 |
|---|---|
| Airport | Zürich Airport (LSZH) |
| Time | Latitude | Longitude | Altitude | Speed | Heading |
|---|---|---|---|---|---|
| 2026-05-05 18:03 | 52.36049 | 13.50974 | 159 ft | 0 kts | 5° |
| 2026-05-05 18:23 | 52.36042 | 13.50973 | 159 ft | 4 kts | 5° |
| 2026-05-05 18:23 | 52.36015 | 13.50969 | 158 ft | 4 kts | 5° |
| 2026-05-05 18:23 | 52.35992 | 13.50966 | 158 ft | 4 kts | 1° |
| 2026-05-05 18:23 | 52.35969 | 13.50974 | 158 ft | 4 kts | 307° |
| 2026-05-05 18:24 | 52.35963 | 13.51010 | 158 ft | 4 kts | 258° |
| 2026-05-05 18:24 | 52.35970 | 13.51047 | 158 ft | 1 kts | 249° |
| 2026-05-05 18:24 | 52.35970 | 13.51048 | 158 ft | 0 kts | 249° |
| 2026-05-05 18:28 | 52.35968 | 13.51039 | 158 ft | 1 kts | 249° |
| 2026-05-05 18:28 | 52.35962 | 13.51012 | 158 ft | 4 kts | 249° |
| 2026-05-05 18:29 | 52.35950 | 13.50964 | 158 ft | 5 kts | 249° |
| 2026-05-05 18:29 | 52.35936 | 13.50901 | 158 ft | 7 kts | 249° |
| 2026-05-05 18:29 | 52.35924 | 13.50854 | 158 ft | 4 kts | 249° |
| 2026-05-05 18:29 | 52.35910 | 13.50795 | 158 ft | 7 kts | 249° |
| 2026-05-05 18:30 | 52.35892 | 13.50715 | 158 ft | 3 kts | 249° |
| 2026-05-05 18:30 | 52.35889 | 13.50704 | 158 ft | 3 kts | 249° |
| 2026-05-05 18:30 | 52.35864 | 13.50644 | 158 ft | 6 kts | 218° |
| 2026-05-05 18:30 | 52.35812 | 13.50644 | 158 ft | 6 kts | 167° |
| 2026-05-05 18:31 | 52.35777 | 13.50611 | 158 ft | 10 kts | 227° |
| 2026-05-05 18:31 | 52.35734 | 13.50465 | 158 ft | 18 kts | 248° |
| 2026-05-05 18:31 | 52.35691 | 13.50277 | 158 ft | 17 kts | 249° |
| 2026-05-05 18:31 | 52.35648 | 13.50096 | 158 ft | 17 kts | 248° |
| 2026-05-05 18:32 | 52.35604 | 13.49915 | 158 ft | 17 kts | 249° |
| 2026-05-05 18:32 | 52.35561 | 13.49733 | 158 ft | 17 kts | 249° |
| 2026-05-05 18:32 | 52.35518 | 13.49550 | 158 ft | 17 kts | 249° |
| 2026-05-05 18:32 | 52.35475 | 13.49367 | 158 ft | 17 kts | 248° |
| 2026-05-05 18:33 | 52.35431 | 13.49184 | 158 ft | 17 kts | 249° |
| 2026-05-05 18:33 | 52.35387 | 13.48999 | 158 ft | 17 kts | 248° |
| 2026-05-05 18:33 | 52.35343 | 13.48814 | 158 ft | 18 kts | 249° |
| 2026-05-05 18:33 | 52.35305 | 13.48652 | 158 ft | 13 kts | 249° |
| 2026-05-05 18:34 | 52.35276 | 13.48529 | 158 ft | 10 kts | 245° |
| 2026-05-05 18:34 | 52.35227 | 13.48482 | 158 ft | 8 kts | 180° |
| 2026-05-05 18:34 | 52.35182 | 13.48472 | 158 ft | 6 kts | 217° |
| 2026-05-05 18:34 | 52.35157 | 13.48416 | 158 ft | 7 kts | 241° |
| 2026-05-05 18:35 | 52.35133 | 13.48329 | 158 ft | 12 kts | 248° |
| 2026-05-05 18:35 | 52.35094 | 13.48171 | 158 ft | 18 kts | 248° |
| 2026-05-05 18:35 | 52.35041 | 13.47948 | 158 ft | 24 kts | 249° |
| 2026-05-05 18:35 | 52.34979 | 13.47685 | 158 ft | 25 kts | 248° |
| 2026-05-05 18:36 | 52.34920 | 13.47443 | 158 ft | 17 kts | 249° |
| 2026-05-05 18:36 | 52.34891 | 13.47318 | 158 ft | 9 kts | 249° |
| 2026-05-05 18:36 | 52.34868 | 13.47222 | 158 ft | 11 kts | 249° |
| 2026-05-05 18:36 | 52.34835 | 13.47078 | 158 ft | 16 kts | 250° |
| 2026-05-05 18:37 | 52.34795 | 13.46909 | 158 ft | 17 kts | 249° |
| 2026-05-05 18:37 | 52.34757 | 13.46783 | 159 ft | 11 kts | 225° |
| 2026-05-05 18:37 | 52.34689 | 13.46785 | 158 ft | 12 kts | 160° |
| 2026-05-05 18:37 | 52.34604 | 13.46837 | 158 ft | 11 kts | 158° |
| 2026-05-05 18:38 | 52.34567 | 13.46938 | 158 ft | 12 kts | 87° |
| 2026-05-05 18:38 | 52.34578 | 13.46992 | 158 ft | 0 kts | 68° |
| 2026-05-05 18:38 | 52.34581 | 13.47006 | 158 ft | 6 kts | 68° |
| 2026-05-05 18:38 | 52.34661 | 13.47339 | 158 ft | 59 kts | 69° |
| 2026-05-05 18:39 | 52.34871 | 13.48225 | 158 ft | 107 kts | 69° |
| 2026-05-05 18:39 | 52.35189 | 13.49567 | 158 ft | 145 kts | 69° |
| 2026-05-05 18:39 | 52.35577 | 13.51232 | 394 ft | 160 kts | 70° |
| 2026-05-05 18:39 | 52.35904 | 13.52950 | 874 ft | 162 kts | 77° |
| 2026-05-05 18:40 | 52.35550 | 13.54772 | 1112 ft | 182 kts | 133° |
| 2026-05-05 18:40 | 52.34510 | 13.55890 | 1756 ft | 181 kts | 155° |
| 2026-05-05 18:40 | 52.33260 | 13.56080 | 2384 ft | 182 kts | 185° |
| 2026-05-05 18:40 | 52.32071 | 13.55382 | 3002 ft | 183 kts | 213° |
| 2026-05-05 18:41 | 52.31045 | 13.54106 | 3520 ft | 191 kts | 219° |
| 2026-05-05 18:41 | 52.29972 | 13.52640 | 3832 ft | 211 kts | 219° |
| 2026-05-05 18:41 | 52.28895 | 13.51193 | 4023 ft | 236 kts | 219° |
| 2026-05-05 18:41 | 52.27584 | 13.49458 | 4480 ft | 254 kts | 220° |
| 2026-05-05 18:42 | 52.26490 | 13.47160 | 5129 ft | 263 kts | 249° |
| 2026-05-05 18:42 | 52.26211 | 13.44213 | 5930 ft | 266 kts | 269° |
| 2026-05-05 18:42 | 52.26225 | 13.41174 | 6708 ft | 270 kts | 271° |
| 2026-05-05 18:42 | 52.26260 | 13.38128 | 7487 ft | 272 kts | 270° |
| 2026-05-05 18:43 | 52.26282 | 13.35035 | 8297 ft | 273 kts | 270° |
| 2026-05-05 18:43 | 52.26294 | 13.31922 | 9123 ft | 274 kts | 269° |
| 2026-05-05 18:43 | 52.26297 | 13.28811 | 9918 ft | 275 kts | 269° |
| 2026-05-05 18:43 | 52.26297 | 13.25658 | 10549 ft | 280 kts | 269° |
| 2026-05-05 18:44 | 52.26125 | 13.22482 | 11175 ft | 283 kts | 255° |
| 2026-05-05 18:44 | 52.25364 | 13.19480 | 11602 ft | 294 kts | 240° |
| 2026-05-05 18:44 | 52.24382 | 13.16777 | 11871 ft | 309 kts | 238° |
| 2026-05-05 18:44 | 52.23281 | 13.13678 | 12158 ft | 324 kts | 244° |
| 2026-05-05 18:45 | 52.22435 | 13.10175 | 12442 ft | 339 kts | 250° |
| 2026-05-05 18:45 | 52.21702 | 13.06441 | 12731 ft | 353 kts | 252° |
| 2026-05-05 18:45 | 52.21026 | 13.02520 | 13114 ft | 365 kts | 254° |
| 2026-05-05 18:45 | 52.20377 | 12.98489 | 13663 ft | 370 kts | 254° |
| 2026-05-05 18:46 | 52.19728 | 12.94392 | 14210 ft | 375 kts | 254° |
| 2026-05-05 18:46 | 52.19071 | 12.90265 | 14782 ft | 379 kts | 254° |
| 2026-05-05 18:46 | 52.18403 | 12.86140 | 15266 ft | 384 kts | 254° |
| 2026-05-05 18:46 | 52.17710 | 12.81922 | 15844 ft | 387 kts | 254° |
| 2026-05-05 18:47 | 52.17090 | 12.78187 | 16363 ft | 390 kts | 254° |
| 2026-05-05 18:47 | 52.16376 | 12.73919 | 16943 ft | 392 kts | 254° |
| 2026-05-05 18:47 | 52.15657 | 12.69636 | 17525 ft | 395 kts | 254° |
| 2026-05-05 18:47 | 52.15024 | 12.65881 | 18031 ft | 398 kts | 254° |
| 2026-05-05 18:48 | 52.14307 | 12.61637 | 18531 ft | 401 kts | 254° |
| 2026-05-05 18:48 | 52.13565 | 12.57250 | 19053 ft | 403 kts | 253° |
| 2026-05-05 18:48 | 52.12819 | 12.52852 | 19585 ft | 405 kts | 253° |
| 2026-05-05 18:48 | 52.12067 | 12.48424 | 20117 ft | 406 kts | 253° |
| 2026-05-05 18:49 | 52.11333 | 12.44111 | 20624 ft | 408 kts | 253° |
| 2026-05-05 18:49 | 52.10618 | 12.39925 | 21085 ft | 410 kts | 253° |
| 2026-05-05 18:49 | 52.09851 | 12.35445 | 21553 ft | 414 kts | 253° |
| 2026-05-05 18:49 | 52.09073 | 12.30911 | 21985 ft | 417 kts | 253° |
| 2026-05-05 18:50 | 52.08290 | 12.26361 | 22459 ft | 419 kts | 252° |
| 2026-05-05 18:50 | 52.07500 | 12.21779 | 22958 ft | 421 kts | 252° |
| 2026-05-05 18:50 | 52.06709 | 12.17203 | 23412 ft | 423 kts | 252° |
| 2026-05-05 18:50 | 52.05909 | 12.12588 | 23776 ft | 426 kts | 252° |
| 2026-05-05 18:51 | 52.05107 | 12.07971 | 24140 ft | 428 kts | 252° |
| 2026-05-05 18:51 | 52.04295 | 12.03312 | 24503 ft | 430 kts | 252° |
| 2026-05-05 18:51 | 52.03477 | 11.98634 | 24864 ft | 431 kts | 252° |
| 2026-05-05 18:51 | 52.02659 | 11.93966 | 25218 ft | 433 kts | 252° |
| 2026-05-05 18:52 | 52.01833 | 11.89261 | 25572 ft | 435 kts | 252° |
| 2026-05-05 18:52 | 52.00999 | 11.84527 | 25924 ft | 437 kts | 252° |
| 2026-05-05 18:52 | 52.00161 | 11.79781 | 26256 ft | 439 kts | 252° |
| 2026-05-05 18:52 | 51.99361 | 11.75265 | 26538 ft | 441 kts | 251° |
| 2026-05-05 18:53 | 51.98515 | 11.70496 | 26873 ft | 442 kts | 251° |
| 2026-05-05 18:53 | 51.97660 | 11.65695 | 27206 ft | 444 kts | 251° |
| 2026-05-05 18:53 | 51.96802 | 11.60886 | 27512 ft | 445 kts | 251° |
| 2026-05-05 18:53 | 51.95939 | 11.56062 | 27839 ft | 447 kts | 251° |
| 2026-05-05 18:54 | 51.95068 | 11.51206 | 28073 ft | 450 kts | 251° |
| 2026-05-05 18:54 | 51.94402 | 11.47509 | 28243 ft | 452 kts | 251° |
| 2026-05-05 18:54 | 51.93519 | 11.42609 | 28540 ft | 454 kts | 251° |
| 2026-05-05 18:54 | 51.92632 | 11.37706 | 28837 ft | 455 kts | 251° |
| 2026-05-05 18:55 | 51.91742 | 11.32789 | 29237 ft | 454 kts | 251° |
| 2026-05-05 18:55 | 51.90854 | 11.27899 | 29698 ft | 452 kts | 251° |
| 2026-05-05 18:55 | 51.90071 | 11.23602 | 29839 ft | 454 kts | 250° |
| 2026-05-05 18:55 | 51.89179 | 11.18717 | 29846 ft | 452 kts | 250° |
| 2026-05-05 18:56 | 51.87397 | 11.08992 | 29846 ft | 450 kts | 250° |
| 2026-05-05 18:56 | 51.85750 | 10.99986 | 29842 ft | 450 kts | 251° |
| 2026-05-05 18:57 | 51.84028 | 10.90252 | 29842 ft | 450 kts | 251° |
| 2026-05-05 18:57 | 51.82308 | 10.80519 | 29841 ft | 451 kts | 251° |
| 2026-05-05 18:58 | 51.80598 | 10.70940 | 29913 ft | 454 kts | 250° |
| 2026-05-05 18:58 | 51.79713 | 10.66029 | 30039 ft | 457 kts | 250° |
| 2026-05-05 18:58 | 51.78818 | 10.61075 | 30197 ft | 460 kts | 250° |
| 2026-05-05 18:59 | 51.77923 | 10.56126 | 30524 ft | 459 kts | 250° |
| 2026-05-05 18:59 | 51.77056 | 10.51339 | 30882 ft | 457 kts | 250° |
| 2026-05-05 18:59 | 51.76178 | 10.46502 | 31226 ft | 455 kts | 250° |
| 2026-05-05 18:59 | 51.75285 | 10.41605 | 31541 ft | 454 kts | 250° |
| 2026-05-05 19:00 | 51.74394 | 10.36727 | 31788 ft | 455 kts | 250° |
| 2026-05-05 19:00 | 51.73496 | 10.31835 | 31813 ft | 454 kts | 250° |
| 2026-05-05 19:00 | 51.71703 | 10.22095 | 31812 ft | 452 kts | 250° |
| 2026-05-05 19:01 | 51.69908 | 10.12405 | 31816 ft | 453 kts | 249° |
| 2026-05-05 19:01 | 51.68100 | 10.02689 | 31812 ft | 453 kts | 249° |
| 2026-05-05 19:02 | 51.66324 | 9.93191 | 31808 ft | 453 kts | 249° |
| 2026-05-05 19:02 | 51.63893 | 9.83987 | 31811 ft | 446 kts | 235° |
| 2026-05-05 19:03 | 51.59978 | 9.76402 | 31812 ft | 441 kts | 218° |
| 2026-05-05 19:03 | 51.54840 | 9.71206 | 31805 ft | 438 kts | 202° |
| 2026-05-05 19:04 | 51.49216 | 9.67572 | 31803 ft | 438 kts | 199° |
| 2026-05-05 19:04 | 51.43556 | 9.64171 | 31801 ft | 438 kts | 199° |
| 2026-05-05 19:05 | 51.37983 | 9.60797 | 31803 ft | 440 kts | 199° |
| 2026-05-05 19:05 | 51.32267 | 9.57292 | 31810 ft | 442 kts | 199° |
| 2026-05-05 19:06 | 51.26683 | 9.53855 | 31799 ft | 441 kts | 199° |
| 2026-05-05 19:06 | 51.21086 | 9.50419 | 31800 ft | 441 kts | 199° |
| 2026-05-05 19:07 | 51.16289 | 9.47483 | 31800 ft | 442 kts | 199° |
| 2026-05-05 19:07 | 51.09581 | 9.43393 | 31802 ft | 447 kts | 199° |
| 2026-05-05 19:08 | 51.04185 | 9.40574 | 31802 ft | 444 kts | 191° |
| 2026-05-05 19:08 | 50.98108 | 9.38523 | 31799 ft | 449 kts | 189° |
| 2026-05-05 19:09 | 50.91964 | 9.36659 | 31802 ft | 451 kts | 188° |
| 2026-05-05 19:09 | 50.85990 | 9.34886 | 31801 ft | 453 kts | 188° |
| 2026-05-05 19:10 | 50.80848 | 9.33353 | 31803 ft | 453 kts | 188° |
| 2026-05-05 19:10 | 50.74656 | 9.31499 | 31804 ft | 453 kts | 188° |
| 2026-05-05 19:11 | 50.68740 | 9.29728 | 31808 ft | 453 kts | 188° |
| 2026-05-05 19:11 | 50.62547 | 9.27880 | 31806 ft | 453 kts | 188° |
| 2026-05-05 19:12 | 50.56378 | 9.26043 | 31809 ft | 453 kts | 188° |
| 2026-05-05 19:12 | 50.50267 | 9.24228 | 31820 ft | 453 kts | 188° |
| 2026-05-05 19:13 | 50.44080 | 9.22395 | 31812 ft | 455 kts | 188° |
| 2026-05-05 19:13 | 50.37859 | 9.20558 | 31812 ft | 455 kts | 188° |
| 2026-05-05 19:14 | 50.31801 | 9.18775 | 31813 ft | 455 kts | 188° |
| 2026-05-05 19:14 | 50.25576 | 9.16947 | 31817 ft | 456 kts | 188° |
| 2026-05-05 19:15 | 50.19492 | 9.15165 | 31817 ft | 457 kts | 188° |
| 2026-05-05 19:15 | 50.13195 | 9.13325 | 31818 ft | 457 kts | 188° |
| 2026-05-05 19:16 | 50.06938 | 9.11500 | 31815 ft | 457 kts | 188° |
| 2026-05-05 19:16 | 50.00742 | 9.09699 | 31822 ft | 459 kts | 188° |
| 2026-05-05 19:17 | 49.94486 | 9.07885 | 31824 ft | 460 kts | 188° |
| 2026-05-05 19:17 | 49.88226 | 9.06076 | 31827 ft | 460 kts | 188° |
| 2026-05-05 19:18 | 49.81941 | 9.04263 | 31833 ft | 460 kts | 188° |
| 2026-05-05 19:18 | 49.75821 | 9.02504 | 31826 ft | 461 kts | 188° |
| 2026-05-05 19:19 | 49.69883 | 9.00800 | 31829 ft | 461 kts | 188° |
| 2026-05-05 19:19 | 49.63785 | 8.99054 | 31830 ft | 461 kts | 188° |
| 2026-05-05 19:20 | 49.57664 | 8.97308 | 31830 ft | 461 kts | 188° |
| 2026-05-05 19:20 | 49.51334 | 8.95505 | 31830 ft | 462 kts | 188° |
| 2026-05-05 19:21 | 49.45095 | 8.93734 | 31828 ft | 462 kts | 188° |
| 2026-05-05 19:21 | 49.38818 | 8.91957 | 31832 ft | 462 kts | 189° |
| 2026-05-05 19:22 | 49.32652 | 8.90215 | 31824 ft | 461 kts | 189° |
| 2026-05-05 19:22 | 49.26489 | 8.88478 | 31777 ft | 461 kts | 189° |
| 2026-05-05 19:23 | 49.20186 | 8.86706 | 31459 ft | 459 kts | 189° |
| 2026-05-05 19:23 | 49.17046 | 8.85826 | 31254 ft | 461 kts | 189° |
| 2026-05-05 19:23 | 49.13889 | 8.84942 | 31048 ft | 462 kts | 189° |
| 2026-05-05 19:24 | 49.11123 | 8.84169 | 30884 ft | 462 kts | 189° |
| 2026-05-05 19:24 | 49.07883 | 8.83263 | 30577 ft | 465 kts | 189° |
| 2026-05-05 19:24 | 49.04689 | 8.82372 | 29946 ft | 466 kts | 189° |
| 2026-05-05 19:24 | 49.01570 | 8.81502 | 29017 ft | 458 kts | 190° |
| 2026-05-05 19:25 | 48.98457 | 8.80635 | 28018 ft | 451 kts | 190° |
| 2026-05-05 19:25 | 48.95384 | 8.79780 | 27107 ft | 445 kts | 190° |
| 2026-05-05 19:25 | 48.92617 | 8.79012 | 26309 ft | 438 kts | 190° |
| 2026-05-05 19:25 | 48.89686 | 8.78200 | 25514 ft | 431 kts | 190° |
| 2026-05-05 19:26 | 48.86881 | 8.77424 | 25038 ft | 430 kts | 190° |
| 2026-05-05 19:26 | 48.83946 | 8.76627 | 24710 ft | 432 kts | 189° |
| 2026-05-05 19:26 | 48.80997 | 8.75839 | 24399 ft | 428 kts | 189° |
| 2026-05-05 19:26 | 48.78083 | 8.75064 | 24091 ft | 424 kts | 189° |
| 2026-05-05 19:27 | 48.75203 | 8.74298 | 23792 ft | 422 kts | 189° |
| 2026-05-05 19:27 | 48.72823 | 8.73664 | 23536 ft | 420 kts | 189° |
| 2026-05-05 19:27 | 48.69974 | 8.72905 | 23211 ft | 417 kts | 189° |
| 2026-05-05 19:27 | 48.67127 | 8.72146 | 22890 ft | 415 kts | 190° |
| 2026-05-05 19:28 | 48.64444 | 8.71431 | 22835 ft | 414 kts | 190° |
| 2026-05-05 19:28 | 48.61621 | 8.70680 | 22836 ft | 414 kts | 190° |
| 2026-05-05 19:28 | 48.58931 | 8.69964 | 22836 ft | 413 kts | 190° |
| 2026-05-05 19:28 | 48.56272 | 8.69257 | 22840 ft | 413 kts | 190° |
| 2026-05-05 19:29 | 48.53439 | 8.68504 | 22837 ft | 413 kts | 190° |
| 2026-05-05 19:29 | 48.50612 | 8.67754 | 22840 ft | 413 kts | 190° |
| 2026-05-05 19:29 | 48.47777 | 8.67003 | 22845 ft | 413 kts | 190° |
| 2026-05-05 19:29 | 48.45155 | 8.66309 | 22845 ft | 413 kts | 190° |
| 2026-05-05 19:30 | 48.42322 | 8.65561 | 22845 ft | 413 kts | 190° |
| 2026-05-05 19:30 | 48.39515 | 8.64820 | 22855 ft | 413 kts | 190° |
| 2026-05-05 19:30 | 48.36687 | 8.64068 | 22854 ft | 413 kts | 190° |
| 2026-05-05 19:30 | 48.33867 | 8.63254 | 22854 ft | 413 kts | 191° |
| 2026-05-05 19:31 | 48.31119 | 8.62415 | 22858 ft | 413 kts | 191° |
| 2026-05-05 19:31 | 48.28405 | 8.61573 | 22856 ft | 413 kts | 191° |
| 2026-05-05 19:31 | 48.25589 | 8.60699 | 22856 ft | 413 kts | 191° |
| 2026-05-05 19:31 | 48.22887 | 8.59868 | 22859 ft | 412 kts | 191° |
| 2026-05-05 19:32 | 48.20072 | 8.59011 | 22859 ft | 412 kts | 191° |
| 2026-05-05 19:32 | 48.17258 | 8.58162 | 22859 ft | 412 kts | 191° |
| 2026-05-05 19:32 | 48.14468 | 8.57323 | 22865 ft | 412 kts | 191° |
| 2026-05-05 19:32 | 48.11657 | 8.56490 | 22864 ft | 412 kts | 191° |
| 2026-05-05 19:33 | 48.08842 | 8.55657 | 22864 ft | 411 kts | 191° |
| 2026-05-05 19:33 | 48.06086 | 8.54841 | 22870 ft | 409 kts | 191° |
| 2026-05-05 19:33 | 48.03315 | 8.54019 | 22871 ft | 409 kts | 191° |
| 2026-05-05 19:33 | 48.00581 | 8.53209 | 22870 ft | 409 kts | 191° |
| 2026-05-05 19:34 | 47.97788 | 8.52381 | 22876 ft | 409 kts | 191° |
| 2026-05-05 19:34 | 47.94982 | 8.51724 | 22871 ft | 409 kts | 184° |
| 2026-05-05 19:34 | 47.92138 | 8.51901 | 22877 ft | 410 kts | 175° |
| 2026-05-05 19:35 | 47.86625 | 8.54053 | 22258 ft | 414 kts | 156° |
| 2026-05-05 19:35 | 47.84309 | 8.56305 | 21882 ft | 413 kts | 142° |
| 2026-05-05 19:35 | 47.82376 | 8.59453 | 21482 ft | 413 kts | 128° |
| 2026-05-05 19:35 | 47.81115 | 8.63288 | 21093 ft | 414 kts | 111° |
| 2026-05-05 19:36 | 47.80021 | 8.67183 | 20702 ft | 403 kts | 126° |
| 2026-05-05 19:36 | 47.78442 | 8.70571 | 20329 ft | 396 kts | 131° |
| 2026-05-05 19:36 | 47.76735 | 8.73707 | 19959 ft | 391 kts | 133° |
| 2026-05-05 19:36 | 47.74974 | 8.76745 | 19586 ft | 386 kts | 135° |
| 2026-05-05 19:37 | 47.73178 | 8.79679 | 19220 ft | 381 kts | 136° |
| 2026-05-05 19:37 | 47.71533 | 8.82262 | 18885 ft | 378 kts | 137° |
| 2026-05-05 19:37 | 47.69715 | 8.85053 | 18527 ft | 374 kts | 137° |
| 2026-05-05 19:37 | 47.67931 | 8.87759 | 18176 ft | 367 kts | 138° |
| 2026-05-05 19:38 | 47.66191 | 8.90398 | 17820 ft | 348 kts | 138° |
| 2026-05-05 19:38 | 47.64547 | 8.92892 | 17539 ft | 330 kts | 138° |
| 2026-05-05 19:38 | 47.62983 | 8.95268 | 17258 ft | 315 kts | 138° |
| 2026-05-05 19:38 | 47.61585 | 8.97392 | 17000 ft | 304 kts | 138° |
| 2026-05-05 19:39 | 47.60119 | 8.99612 | 16895 ft | 299 kts | 139° |
| 2026-05-05 19:39 | 47.58671 | 9.01801 | 16883 ft | 298 kts | 139° |
| 2026-05-05 19:39 | 47.57282 | 9.04086 | 16875 ft | 301 kts | 129° |
| 2026-05-05 19:39 | 47.56450 | 9.06383 | 16887 ft | 305 kts | 112° |
| 2026-05-05 19:40 | 47.55933 | 9.09012 | 16882 ft | 307 kts | 106° |
| 2026-05-05 19:40 | 47.55543 | 9.12128 | 16884 ft | 310 kts | 101° |
| 2026-05-05 19:40 | 47.55268 | 9.15307 | 16707 ft | 312 kts | 99° |
| 2026-05-05 19:40 | 47.55037 | 9.18528 | 16254 ft | 318 kts | 99° |
| 2026-05-05 19:41 | 47.54836 | 9.21653 | 15787 ft | 319 kts | 95° |
| 2026-05-05 19:41 | 47.55075 | 9.24874 | 15295 ft | 315 kts | 72° |
| 2026-05-05 19:41 | 47.56187 | 9.27593 | 14825 ft | 308 kts | 41° |
| 2026-05-05 19:41 | 47.57877 | 9.29033 | 14395 ft | 296 kts | 11° |
| 2026-05-05 19:42 | 47.59862 | 9.29031 | 13916 ft | 282 kts | 338° |
| 2026-05-05 19:42 | 47.61505 | 9.27599 | 13459 ft | 272 kts | 312° |
| 2026-05-05 19:42 | 47.62642 | 9.25464 | 13026 ft | 269 kts | 296° |
| 2026-05-05 19:42 | 47.63378 | 9.22934 | 12743 ft | 265 kts | 282° |
| 2026-05-05 19:43 | 47.63487 | 9.20273 | 12471 ft | 258 kts | 258° |
| 2026-05-05 19:43 | 47.62957 | 9.17758 | 12227 ft | 255 kts | 245° |
| 2026-05-05 19:43 | 47.62132 | 9.15442 | 11979 ft | 254 kts | 239° |
| 2026-05-05 19:43 | 47.61194 | 9.13215 | 11716 ft | 254 kts | 237° |
| 2026-05-05 19:44 | 47.60246 | 9.11011 | 11466 ft | 254 kts | 238° |
| 2026-05-05 19:44 | 47.59323 | 9.08788 | 11220 ft | 253 kts | 239° |
| 2026-05-05 19:44 | 47.58435 | 9.06536 | 10962 ft | 252 kts | 240° |
| 2026-05-05 19:44 | 47.57602 | 9.04254 | 10696 ft | 252 kts | 246° |
| 2026-05-05 19:45 | 47.57451 | 9.01696 | 10468 ft | 256 kts | 282° |
| 2026-05-05 19:45 | 47.58315 | 8.99518 | 10223 ft | 264 kts | 315° |
| 2026-05-05 19:45 | 47.59980 | 8.98351 | 9986 ft | 272 kts | 349° |
| 2026-05-05 19:45 | 47.61319 | 8.98408 | 9915 ft | 276 kts | 11° |
| 2026-05-05 19:46 | 47.63070 | 8.99603 | 9882 ft | 281 kts | 38° |
| 2026-05-05 19:46 | 47.64206 | 9.01470 | 9883 ft | 282 kts | 61° |
| 2026-05-05 19:46 | 47.64805 | 9.04193 | 9889 ft | 278 kts | 87° |
| 2026-05-05 19:46 | 47.64862 | 9.07048 | 9884 ft | 277 kts | 96° |
| 2026-05-05 19:47 | 47.64728 | 9.09735 | 9883 ft | 277 kts | 99° |
| 2026-05-05 19:47 | 47.64498 | 9.12574 | 9883 ft | 277 kts | 101° |
| 2026-05-05 19:47 | 47.64215 | 9.15394 | 9881 ft | 276 kts | 106° |
| 2026-05-05 19:47 | 47.63528 | 9.18004 | 9882 ft | 269 kts | 126° |
| 2026-05-05 19:48 | 47.62340 | 9.20080 | 9878 ft | 261 kts | 148° |
| 2026-05-05 19:48 | 47.60749 | 9.21095 | 9884 ft | 251 kts | 176° |
| 2026-05-05 19:48 | 47.59051 | 9.20827 | 9884 ft | 246 kts | 204° |
| 2026-05-05 19:48 | 47.57702 | 9.19350 | 9887 ft | 244 kts | 233° |
| 2026-05-05 19:49 | 47.57042 | 9.17043 | 9888 ft | 248 kts | 261° |
| 2026-05-05 19:49 | 47.57070 | 9.15344 | 9901 ft | 252 kts | 277° |
| 2026-05-05 19:49 | 47.57653 | 9.11944 | 9888 ft | 256 kts | 283° |
| 2026-05-05 19:49 | 47.58171 | 9.09416 | 9887 ft | 256 kts | 283° |
| 2026-05-05 19:50 | 47.58681 | 9.06963 | 9877 ft | 249 kts | 283° |
| 2026-05-05 19:50 | 47.59192 | 9.04518 | 9883 ft | 249 kts | 283° |
| 2026-05-05 19:50 | 47.59703 | 9.02075 | 9886 ft | 249 kts | 283° |
| 2026-05-05 19:50 | 47.60208 | 8.99658 | 9886 ft | 249 kts | 283° |
| 2026-05-05 19:51 | 47.60713 | 8.97240 | 9885 ft | 248 kts | 283° |
| 2026-05-05 19:51 | 47.61101 | 8.95385 | 9887 ft | 248 kts | 283° |
| 2026-05-05 19:51 | 47.61614 | 8.92936 | 9889 ft | 249 kts | 283° |
| 2026-05-05 19:51 | 47.62127 | 8.90493 | 9886 ft | 248 kts | 283° |
| 2026-05-05 19:52 | 47.62639 | 8.88044 | 9886 ft | 248 kts | 283° |
| 2026-05-05 19:52 | 47.63148 | 8.85600 | 9895 ft | 249 kts | 283° |
| 2026-05-05 19:52 | 47.63658 | 8.83155 | 9897 ft | 248 kts | 283° |
| 2026-05-05 19:52 | 47.64170 | 8.80789 | 9901 ft | 246 kts | 283° |
| 2026-05-05 19:53 | 47.64706 | 8.78411 | 9897 ft | 242 kts | 283° |
| 2026-05-05 19:53 | 47.65242 | 8.76054 | 9895 ft | 241 kts | 283° |
| 2026-05-05 19:53 | 47.65598 | 8.74486 | 9899 ft | 242 kts | 283° |
| 2026-05-05 19:53 | 47.66183 | 8.71364 | 9892 ft | 237 kts | 269° |
| 2026-05-05 19:54 | 47.65877 | 8.69048 | 9897 ft | 228 kts | 240° |
| 2026-05-05 19:54 | 47.64803 | 8.67369 | 9901 ft | 228 kts | 211° |
| 2026-05-05 19:54 | 47.63257 | 8.66785 | 9885 ft | 237 kts | 182° |
| 2026-05-05 19:54 | 47.62169 | 8.67095 | 9746 ft | 245 kts | 163° |
| 2026-05-05 19:55 | 47.60765 | 8.68584 | 9532 ft | 257 kts | 135° |
| 2026-05-05 19:55 | 47.59768 | 8.70819 | 9296 ft | 263 kts | 125° |
| 2026-05-05 19:55 | 47.58891 | 8.73212 | 9067 ft | 264 kts | 123° |
| 2026-05-05 19:55 | 47.57995 | 8.75584 | 8818 ft | 263 kts | 129° |
| 2026-05-05 19:56 | 47.56940 | 8.77774 | 8592 ft | 261 kts | 133° |
| 2026-05-05 19:56 | 47.55843 | 8.79911 | 8350 ft | 260 kts | 133° |
| 2026-05-05 19:56 | 47.54738 | 8.82015 | 8095 ft | 258 kts | 133° |
| 2026-05-05 19:56 | 47.53691 | 8.83934 | 7867 ft | 257 kts | 133° |
| 2026-05-05 19:57 | 47.52560 | 8.85998 | 7517 ft | 261 kts | 133° |
| 2026-05-05 19:57 | 47.51403 | 8.88092 | 7152 ft | 264 kts | 135° |
| 2026-05-05 19:57 | 47.50006 | 8.89769 | 6775 ft | 257 kts | 160° |
| 2026-05-05 19:57 | 47.48295 | 8.90370 | 6431 ft | 252 kts | 180° |
| 2026-05-05 19:58 | 47.46549 | 8.90523 | 6032 ft | 248 kts | 182° |
| 2026-05-05 19:58 | 47.44887 | 8.90323 | 5636 ft | 234 kts | 202° |
| 2026-05-05 19:58 | 47.43591 | 8.89032 | 5266 ft | 221 kts | 234° |
| 2026-05-05 19:58 | 47.42981 | 8.87076 | 5018 ft | 206 kts | 256° |
| 2026-05-05 19:59 | 47.42817 | 8.85059 | 5016 ft | 188 kts | 273° |
| 2026-05-05 19:59 | 47.43225 | 8.83254 | 5007 ft | 184 kts | 299° |
| 2026-05-05 19:59 | 47.43843 | 8.81621 | 4945 ft | 181 kts | 288° |
| 2026-05-05 19:59 | 47.44091 | 8.79819 | 4687 ft | 177 kts | 275° |
| 2026-05-05 20:00 | 47.44205 | 8.78052 | 4407 ft | 168 kts | 274° |
| 2026-05-05 20:00 | 47.44308 | 8.76371 | 4166 ft | 160 kts | 272° |
| 2026-05-05 20:00 | 47.44412 | 8.74746 | 3942 ft | 159 kts | 272° |
| 2026-05-05 20:00 | 47.44521 | 8.73127 | 3710 ft | 158 kts | 272° |
| 2026-05-05 20:01 | 47.44631 | 8.71540 | 3472 ft | 152 kts | 273° |
| 2026-05-05 20:01 | 47.44741 | 8.69994 | 3255 ft | 149 kts | 273° |
| 2026-05-05 20:01 | 47.44849 | 8.68486 | 3056 ft | 149 kts | 273° |
| 2026-05-05 20:01 | 47.44956 | 8.66959 | 2834 ft | 150 kts | 272° |
| 2026-05-05 20:02 | 47.45065 | 8.65420 | 2615 ft | 150 kts | 273° |
| 2026-05-05 20:02 | 47.45172 | 8.63890 | 2404 ft | 149 kts | 273° |
| 2026-05-05 20:02 | 47.45281 | 8.62377 | 2192 ft | 148 kts | 273° |
| 2026-05-05 20:02 | 47.45389 | 8.60862 | 2016 ft | 148 kts | 274° |
| 2026-05-05 20:03 | 47.45493 | 8.59376 | 1828 ft | 147 kts | 274° |
| 2026-05-05 20:03 | 47.45596 | 8.57921 | 1601 ft | 148 kts | 274° |
| 2026-05-05 20:03 | 47.45706 | 8.56448 | 1433 ft | 139 kts | 272° |
| 2026-05-05 20:03 | 47.45787 | 8.55241 | 1406 ft | 93 kts | 276° |
| 2026-05-05 20:04 | 47.45839 | 8.54514 | 1394 ft | 58 kts | 275° |
| 2026-05-05 20:04 | 47.45870 | 8.54075 | 1405 ft | 28 kts | 276° |
| 2026-05-05 20:04 | 47.45883 | 8.53874 | 1401 ft | 14 kts | 269° |
| 2026-05-05 20:04 | 47.45867 | 8.53810 | 1409 ft | 0 kts | 236° |
| 2026-05-05 20:05 | 47.45853 | 8.53788 | 1406 ft | 2 kts | 222° |
| 2026-05-05 20:05 | 47.45831 | 8.53771 | 1404 ft | 6 kts | 205° |
| 2026-05-05 20:05 | 47.45777 | 8.53763 | 1408 ft | 10 kts | 171° |
| 2026-05-05 20:05 | 47.45717 | 8.53837 | 1405 ft | 12 kts | 121° |
| 2026-05-05 20:06 | 47.45686 | 8.53960 | 1385 ft | 14 kts | 109° |
| 2026-05-05 20:06 | 47.45655 | 8.54088 | 1388 ft | 14 kts | 109° |
| 2026-05-05 20:06 | 47.45624 | 8.54226 | 1389 ft | 14 kts | 108° |
| 2026-05-05 20:06 | 47.45595 | 8.54359 | 1397 ft | 13 kts | 108° |
| 2026-05-05 20:07 | 47.45568 | 8.54481 | 1399 ft | 12 kts | 108° |